Time;durP1;ratioP1;P1;durP2;ratioP2;P2;SDS_P1;SDS_P2;PMS_P1;PMS_P2;Temp;Humidity;BMP_temperature;BMP_pressure;BME280_temperature;BME280_humidity;BME280_pressure;Samples;Min_cycle;Max_cycle;Signal;HPM_P1;HPM_P2
2022/01/03 00:00:08;;;;;;;2.00;1.73;;;;;;;;;;5032375;28;20193;-63
2022/01/03 00:02:35;;;;;;;1.83;1.70;;;;;;;;;;5035036;28;20663;-62
2022/01/03 00:05:02;;;;;;;2.53;1.60;;;;;;;;;;5034889;28;20197;-61
2022/01/03 00:07:28;;;;;;;3.93;1.90;;;;;;;;;;5034914;28;20300;-61
2022/01/03 00:09:55;;;;;;;2.20;2.00;;;;;;;;;;5034789;28;20288;-60
2022/01/03 00:12:21;;;;;;;2.33;2.00;;;;;;;;;;5034913;28;20677;-63
2022/01/03 00:14:48;;;;;;;4.60;2.10;;;;;;;;;;5034944;28;20205;-62
2022/01/03 00:17:14;;;;;;;4.57;2.40;;;;;;;;;;5034563;28;20207;-63
2022/01/03 00:19:40;;;;;;;3.10;2.20;;;;;;;;;;5034565;28;20200;-62
2022/01/03 00:22:09;;;;;;;3.90;2.07;;;;;;;;;;5034278;28;20623;-63
2022/01/03 00:24:36;;;;;;;4.20;2.50;;;;;;;;;;5034737;28;20578;-64
2022/01/03 00:27:04;;;;;;;3.83;2.20;;;;;;;;;;5034602;28;20207;-64
2022/01/03 00:29:32;;;;;;;4.10;2.07;;;;;;;;;;5034364;28;20801;-62
2022/01/03 00:31:58;;;;;;;4.87;2.47;;;;;;;;;;5032310;28;20233;-68
2022/01/03 00:34:28;;;;;;;4.90;2.50;;;;;;;;;;5034444;28;20230;-68
2022/01/03 00:36:55;;;;;;;2.97;2.37;;;;;;;;;;5034364;28;20205;-69
2022/01/03 00:39:22;;;;;;;6.63;2.60;;;;;;;;;;5034241;28;20199;-69
2022/01/03 00:41:49;;;;;;;4.17;2.30;;;;;;;;;;5034618;28;20205;-63
2022/01/03 00:44:16;;;;;;;2.10;1.90;;;;;;;;;;5034351;28;20292;-67
2022/01/03 00:46:43;;;;;;;2.57;1.70;;;;;;;;;;5034150;28;20224;-70
2022/01/03 00:49:09;;;;;;;3.77;1.80;;;;;;;;;;5033739;28;20209;-69
2022/01/03 00:51:36;;;;;;;4.37;1.90;;;;;;;;;;5033975;28;20220;-70
2022/01/03 00:54:02;;;;;;;2.83;1.70;;;;;;;;;;5033998;28;20216;-70
2022/01/03 00:56:30;;;;;;;1.97;1.20;;;;;;;;;;5033912;28;20232;-71
2022/01/03 00:59:00;;;;;;;2.10;1.30;;;;;;;;;;5033850;28;20741;-68
2022/01/03 01:01:26;;;;;;;1.10;0.87;;;;;;;;;;5033930;28;20221;-69
2022/01/03 01:03:53;;;;;;;0.87;0.87;;;;;;;;;;5033768;28;20232;-70
2022/01/03 01:06:20;;;;;;;1.00;0.90;;;;;;;;;;5033849;28;20205;-71
2022/01/03 01:08:48;;;;;;;1.80;0.83;;;;;;;;;;5033811;28;20747;-70
2022/01/03 01:11:15;;;;;;;1.40;0.80;;;;;;;;;;5032999;28;20236;-70
2022/01/03 01:13:44;;;;;;;0.80;0.80;;;;;;;;;;5033725;28;20292;-71
2022/01/03 01:16:11;;;;;;;1.27;0.90;;;;;;;;;;5033291;28;20280;-72
2022/01/03 01:18:39;;;;;;;1.37;1.00;;;;;;;;;;5033166;28;20671;-70
2022/01/03 01:21:05;;;;;;;1.53;0.97;;;;;;;;;;5033554;28;20220;-70
2022/01/03 01:23:31;;;;;;;2.50;1.10;;;;;;;;;;5033872;28;20219;-69
2022/01/03 01:28:44;;;;;;;0.73;0.73;;;;;;;;;;5033454;28;20195;-69
2022/01/03 01:31:11;;;;;;;2.30;0.97;;;;;;;;;;5033145;28;20228;-70
2022/01/03 01:33:38;;;;;;;1.23;0.80;;;;;;;;;;5033311;28;20201;-68
2022/01/03 01:36:05;;;;;;;2.40;1.23;;;;;;;;;;5033388;28;20262;-68
2022/01/03 01:38:32;;;;;;;3.67;1.43;;;;;;;;;;5033257;28;20651;-70
2022/01/03 01:40:59;;;;;;;2.37;1.40;;;;;;;;;;5033171;28;20659;-70
2022/01/03 01:43:29;;;;;;;5.20;1.80;;;;;;;;;;5033111;28;20651;-69
2022/01/03 01:45:59;;;;;;;5.63;1.70;;;;;;;;;;5033095;28;20228;-70
2022/01/03 01:48:27;;;;;;;4.97;1.60;;;;;;;;;;5033027;28;20211;-69
2022/01/03 01:50:55;;;;;;;5.50;1.53;;;;;;;;;;5032949;28;20225;-68
2022/01/03 01:53:22;;;;;;;4.07;1.60;;;;;;;;;;5032728;28;20679;-69
2022/01/03 01:55:49;;;;;;;6.17;2.13;;;;;;;;;;5032977;28;20295;-69
2022/01/03 01:58:24;;;;;;;3.93;1.63;;;;;;;;;;5032842;28;20296;-68
2022/01/03 02:00:57;;;;;;;6.73;1.80;;;;;;;;;;5033121;28;20242;-69
2022/01/03 02:03:26;;;;;;;6.80;1.83;;;;;;;;;;5032694;28;20220;-69
2022/01/03 02:05:57;;;;;;;6.30;1.90;;;;;;;;;;5032775;28;20205;-69
2022/01/03 02:08:26;;;;;;;5.70;2.00;;;;;;;;;;5032711;28;20201;-70
2022/01/03 02:10:56;;;;;;;7.23;2.40;;;;;;;;;;5032561;28;20229;-69
2022/01/03 02:13:23;;;;;;;10.27;2.20;;;;;;;;;;5032503;28;20207;-69
2022/01/03 02:15:57;;;;;;;9.00;2.33;;;;;;;;;;5032789;28;20272;-69
2022/01/03 02:18:23;;;;;;;5.53;2.00;;;;;;;;;;5032545;28;20204;-70
2022/01/03 02:20:51;;;;;;;6.37;2.37;;;;;;;;;;5030842;28;20193;-70
2022/01/03 02:23:17;;;;;;;10.00;2.57;;;;;;;;;;5031541;28;20704;-70
2022/01/03 02:25:43;;;;;;;7.47;2.47;;;;;;;;;;5032256;28;20291;-68
2022/01/03 02:28:09;;;;;;;8.27;2.20;;;;;;;;;;5032081;28;20622;-70
2022/01/03 02:30:35;;;;;;;6.67;2.53;;;;;;;;;;5032333;28;20590;-70
2022/01/03 02:33:01;;;;;;;7.97;2.03;;;;;;;;;;5032380;28;20193;-69
2022/01/03 02:35:28;;;;;;;8.70;2.40;;;;;;;;;;5032103;28;20651;-69
2022/01/03 02:37:55;;;;;;;5.40;2.20;;;;;;;;;;5032098;28;20756;-70
2022/01/03 02:40:21;;;;;;;7.03;2.13;;;;;;;;;;5032187;28;20207;-69
2022/01/03 02:42:48;;;;;;;6.23;2.37;;;;;;;;;;5032274;28;20197;-69
2022/01/03 02:45:15;;;;;;;5.83;2.03;;;;;;;;;;5032486;28;20555;-69
2022/01/03 02:47:44;;;;;;;9.03;2.43;;;;;;;;;;5032142;28;20305;-69
2022/01/03 02:50:10;;;;;;;8.43;2.27;;;;;;;;;;5031837;28;20227;-69
2022/01/03 02:52:36;;;;;;;11.03;2.77;;;;;;;;;;5031949;28;20204;-70
2022/01/03 02:55:05;;;;;;;8.93;2.20;;;;;;;;;;5032026;28;20252;-70
2022/01/03 02:57:33;;;;;;;8.03;1.93;;;;;;;;;;5032048;28;20201;-69
2022/01/03 02:59:59;;;;;;;11.00;2.67;;;;;;;;;;5032337;28;20606;-69
2022/01/03 03:02:26;;;;;;;8.17;2.13;;;;;;;;;;5031834;28;20662;-68
2022/01/03 03:04:53;;;;;;;9.87;2.57;;;;;;;;;;5031779;28;20197;-69
2022/01/03 03:07:20;;;;;;;10.33;2.70;;;;;;;;;;5031903;28;20201;-68
2022/01/03 03:09:46;;;;;;;10.50;2.73;;;;;;;;;;5032022;28;20207;-68
2022/01/03 03:12:14;;;;;;;5.27;2.07;;;;;;;;;;5031573;28;20254;-68
2022/01/03 03:14:40;;;;;;;9.67;2.20;;;;;;;;;;5031736;28;20266;-68
2022/01/03 03:17:06;;;;;;;11.23;2.60;;;;;;;;;;5031839;28;20667;-68
2022/01/03 03:19:32;;;;;;;8.40;2.33;;;;;;;;;;5031856;28;20193;-68
2022/01/03 03:21:58;;;;;;;8.43;3.07;;;;;;;;;;5031698;28;20629;-68
2022/01/03 03:24:24;;;;;;;11.77;2.87;;;;;;;;;;5031661;28;20212;-68
2022/01/03 03:26:50;;;;;;;14.13;3.57;;;;;;;;;;5031782;28;20748;-68
2022/01/03 03:29:17;;;;;;;7.07;2.40;;;;;;;;;;5031683;28;20205;-68
2022/01/03 03:31:43;;;;;;;9.63;2.80;;;;;;;;;;5031677;28;20232;-67
2022/01/03 03:34:09;;;;;;;9.37;2.77;;;;;;;;;;5031428;28;20295;-66
2022/01/03 03:36:35;;;;;;;10.43;3.03;;;;;;;;;;5035245;28;20648;-67
2022/01/03 03:39:01;;;;;;;10.03;2.57;;;;;;;;;;5035564;28;20284;-66
2022/01/03 03:41:27;;;;;;;7.10;2.23;;;;;;;;;;5035265;28;20204;-67
2022/01/03 03:43:53;;;;;;;10.83;2.63;;;;;;;;;;5035547;28;20197;-67
2022/01/03 03:46:20;;;;;;;13.30;2.47;;;;;;;;;;5035424;28;20690;-68
2022/01/03 03:48:46;;;;;;;10.50;3.00;;;;;;;;;;5035434;28;20228;-67
2022/01/03 03:51:12;;;;;;;7.83;2.30;;;;;;;;;;5035169;28;20247;-68
2022/01/03 03:53:38;;;;;;;7.17;2.73;;;;;;;;;;5035062;28;20244;-68
2022/01/03 03:56:04;;;;;;;11.53;2.93;;;;;;;;;;5035104;28;20332;-67
2022/01/03 03:58:30;;;;;;;11.30;2.27;;;;;;;;;;5035073;28;20236;-68
2022/01/03 04:00:57;;;;;;;10.87;3.13;;;;;;;;;;5035168;28;20189;-67
2022/01/03 04:03:24;;;;;;;9.70;2.70;;;;;;;;;;5034948;28;20197;-68
2022/01/03 04:05:50;;;;;;;11.37;2.67;;;;;;;;;;5035066;28;20211;-69
2022/01/03 04:08:16;;;;;;;9.07;2.40;;;;;;;;;;5035142;28;20284;-68
2022/01/03 04:10:42;;;;;;;7.67;2.40;;;;;;;;;;5034811;28;20634;-68
2022/01/03 04:13:08;;;;;;;5.90;2.40;;;;;;;;;;5034658;28;20204;-68
2022/01/03 04:15:34;;;;;;;8.83;2.90;;;;;;;;;;5034876;28;20215;-68
2022/01/03 04:18:00;;;;;;;11.43;3.03;;;;;;;;;;5034881;28;20287;-68
2022/01/03 04:20:28;;;;;;;12.33;3.20;;;;;;;;;;5034573;28;20201;-68
2022/01/03 04:22:54;;;;;;;9.50;2.90;;;;;;;;;;5034764;28;20212;-68
2022/01/03 04:25:20;;;;;;;11.60;2.70;;;;;;;;;;5034590;28;20201;-69
2022/01/03 04:27:46;;;;;;;12.20;2.60;;;;;;;;;;5034337;28;20296;-69
2022/01/03 04:30:12;;;;;;;8.60;2.77;;;;;;;;;;5034379;28;20213;-68
2022/01/03 04:32:38;;;;;;;7.30;2.17;;;;;;;;;;5034546;28;20200;-68
2022/01/03 04:35:04;;;;;;;9.20;2.63;;;;;;;;;;5034282;28;20616;-68
2022/01/03 04:37:32;;;;;;;11.17;2.83;;;;;;;;;;5034278;28;20201;-68
2022/01/03 04:39:58;;;;;;;14.07;2.70;;;;;;;;;;5034424;28;20208;-69
2022/01/03 04:42:24;;;;;;;15.00;2.73;;;;;;;;;;5034239;28;20200;-68
2022/01/03 04:44:50;;;;;;;11.23;3.03;;;;;;;;;;5034423;28;20189;-69
2022/01/03 04:47:16;;;;;;;10.87;3.40;;;;;;;;;;5033148;28;20197;-68
2022/01/03 04:49:42;;;;;;;7.57;2.50;;;;;;;;;;5034032;28;20205;-68
2022/01/03 04:52:08;;;;;;;12.20;3.20;;;;;;;;;;5034032;28;20228;-68
2022/01/03 04:54:36;;;;;;;8.60;2.70;;;;;;;;;;5033791;28;20634;-68
2022/01/03 04:57:02;;;;;;;10.20;2.80;;;;;;;;;;5033873;28;20250;-68
2022/01/03 04:59:28;;;;;;;12.83;3.00;;;;;;;;;;5033570;28;20574;-68
2022/01/03 05:01:54;;;;;;;14.83;2.80;;;;;;;;;;5033919;28;20191;-68
2022/01/03 05:04:20;;;;;;;10.10;2.63;;;;;;;;;;5033694;28;20205;-68
2022/01/03 05:06:46;;;;;;;9.03;2.70;;;;;;;;;;5034010;28;20289;-68
2022/01/03 05:09:12;;;;;;;10.40;3.00;;;;;;;;;;5033739;28;20216;-68
2022/01/03 05:11:39;;;;;;;12.80;3.40;;;;;;;;;;5033662;28;20657;-67
2022/01/03 05:14:05;;;;;;;15.40;3.47;;;;;;;;;;5033757;28;20204;-68
2022/01/03 05:16:31;;;;;;;10.03;3.60;;;;;;;;;;5033699;28;20561;-67
2022/01/03 05:18:57;;;;;;;7.70;2.80;;;;;;;;;;5031911;28;20200;-68
2022/01/03 05:21:25;;;;;;;9.17;2.90;;;;;;;;;;5033463;28;20284;-69
2022/01/03 05:23:51;;;;;;;13.63;3.23;;;;;;;;;;5033490;28;20251;-68
2022/01/03 05:26:17;;;;;;;12.60;3.73;;;;;;;;;;5033528;28;20197;-68
2022/01/03 05:28:47;;;;;;;15.03;4.03;;;;;;;;;;5033337;28;20611;-68
2022/01/03 05:31:14;;;;;;;10.60;3.27;;;;;;;;;;5033366;28;20235;-68
2022/01/03 05:33:40;;;;;;;12.40;3.27;;;;;;;;;;5033122;28;20201;-68
2022/01/03 05:36:06;;;;;;;18.30;4.23;;;;;;;;;;5033368;28;20200;-67
2022/01/03 05:38:32;;;;;;;9.30;3.30;;;;;;;;;;5033341;28;20197;-68
2022/01/03 05:40:58;;;;;;;12.60;3.63;;;;;;;;;;5033385;28;20193;-67
2022/01/03 05:43:24;;;;;;;17.60;3.00;;;;;;;;;;5033126;28;20565;-68
2022/01/03 05:45:51;;;;;;;16.73;3.90;;;;;;;;;;5033162;28;20207;-66
2022/01/03 05:48:18;;;;;;;12.80;4.00;;;;;;;;;;5033053;28;20223;-66
2022/01/03 05:50:43;;;;;;;12.10;3.43;;;;;;;;;;5033003;28;20307;-67
2022/01/03 05:53:09;;;;;;;19.67;3.97;;;;;;;;;;5032880;28;20653;-66
2022/01/03 05:55:35;;;;;;;14.17;3.60;;;;;;;;;;5032771;28;20298;-67
2022/01/03 05:58:01;;;;;;;12.20;3.33;;;;;;;;;;5032846;28;20201;-66
2022/01/03 06:00:28;;;;;;;16.10;4.73;;;;;;;;;;5032730;28;20284;-66
2022/01/03 06:02:58;;;;;;;15.60;4.00;;;;;;;;;;5032749;28;20291;-67
2022/01/03 06:08:01;;;;;;;16.03;4.07;;;;;;;;;;5032857;28;20564;-68
2022/01/03 06:10:28;;;;;;;18.13;4.60;;;;;;;;;;5032540;28;20279;-68
2022/01/03 06:12:54;;;;;;;14.33;3.63;;;;;;;;;;5032580;28;20655;-67
2022/01/03 06:15:24;;;;;;;14.23;3.57;;;;;;;;;;5032472;28;20231;-68
2022/01/03 06:17:51;;;;;;;18.80;3.97;;;;;;;;;;5032658;28;20205;-69
2022/01/03 06:20:19;;;;;;;14.13;3.53;;;;;;;;;;5032520;28;20201;-69
2022/01/03 06:22:45;;;;;;;21.50;4.03;;;;;;;;;;5032326;28;20205;-69
2022/01/03 06:25:12;;;;;;;12.90;3.37;;;;;;;;;;5032523;28;20588;-69
2022/01/03 06:27:38;;;;;;;14.43;3.33;;;;;;;;;;5032245;28;20296;-68
2022/01/03 06:30:05;;;;;;;12.53;3.43;;;;;;;;;;5032445;28;20288;-69
2022/01/03 06:32:31;;;;;;;18.47;4.07;;;;;;;;;;5032141;28;20236;-69
2022/01/03 06:34:57;;;;;;;17.73;3.60;;;;;;;;;;5032359;28;20193;-69
2022/01/03 06:37:25;;;;;;;16.97;4.33;;;;;;;;;;5032319;28;20250;-69
2022/01/03 06:39:51;;;;;;;13.20;4.00;;;;;;;;;;5031972;28;20205;-69
2022/01/03 06:42:17;;;;;;;14.10;4.23;;;;;;;;;;5032265;28;20189;-71
2022/01/03 06:44:45;;;;;;;20.93;6.00;;;;;;;;;;5031994;28;20204;-70
2022/01/03 06:47:11;;;;;;;15.70;4.17;;;;;;;;;;5032161;28;20228;-70
2022/01/03 06:49:37;;;;;;;12.70;3.93;;;;;;;;;;5031837;28;20259;-70
2022/01/03 06:52:03;;;;;;;17.50;4.90;;;;;;;;;;5031890;28;20312;-71
2022/01/03 06:54:33;;;;;;;15.60;3.90;;;;;;;;;;5031858;28;20224;-70
2022/01/03 06:56:59;;;;;;;15.60;3.47;;;;;;;;;;5031760;28;20745;-69
2022/01/03 06:59:25;;;;;;;16.67;3.83;;;;;;;;;;5031816;28;20668;-70
2022/01/03 07:01:51;;;;;;;17.83;4.30;;;;;;;;;;5032149;28;20204;-70
2022/01/03 07:04:17;;;;;;;16.87;4.03;;;;;;;;;;5031872;28;20287;-68
2022/01/03 07:06:43;;;;;;;16.67;4.07;;;;;;;;;;5031566;28;20220;-70
2022/01/03 07:09:09;;;;;;;14.17;3.70;;;;;;;;;;5032453;28;20232;-69
2022/01/03 07:11:36;;;;;;;15.20;4.33;;;;;;;;;;5038240;28;20232;-70
2022/01/03 07:18:56;;;;;;;14.53;4.13;;;;;;;;;;5038463;28;20615;-69
2022/01/03 07:19:34;;;;;;;14.23;3.83;;;;;;;;;;5038424;28;20246;-69
2022/01/03 07:22:02;;;;;;;18.20;3.70;;;;;;;;;;5038451;28;20200;-70
2022/01/03 07:24:28;;;;;;;16.93;3.90;;;;;;;;;;5038038;28;20189;-70
2022/01/03 07:26:56;;;;;;;12.73;3.77;;;;;;;;;;5038053;28;20280;-69
2022/01/03 07:29:22;;;;;;;16.47;4.37;;;;;;;;;;5038168;28;20192;-69
2022/01/03 07:31:48;;;;;;;14.03;3.63;;;;;;;;;;5038087;28;20752;-70
2022/01/03 07:34:14;;;;;;;15.30;3.80;;;;;;;;;;5037996;28;20208;-70
2022/01/03 07:36:40;;;;;;;13.63;3.77;;;;;;;;;;5037875;28;20240;-69
2022/01/03 07:39:06;;;;;;;18.17;4.53;;;;;;;;;;5038061;28;20233;-70
2022/01/03 07:41:32;;;;;;;11.97;3.83;;;;;;;;;;5038151;28;20189;-69
2022/01/03 07:43:59;;;;;;;18.00;3.87;;;;;;;;;;5038149;28;20201;-70
2022/01/03 07:46:25;;;;;;;16.87;3.87;;;;;;;;;;5037974;28;20223;-68
2022/01/03 07:48:51;;;;;;;14.30;3.77;;;;;;;;;;5037929;28;20665;-71
2022/01/03 07:51:17;;;;;;;19.30;4.73;;;;;;;;;;5038077;28;20223;-70
2022/01/03 07:53:43;;;;;;;11.77;3.33;;;;;;;;;;5037799;28;20707;-70
2022/01/03 07:56:12;;;;;;;13.80;3.77;;;;;;;;;;5037643;28;20257;-69
2022/01/03 07:58:38;;;;;;;12.73;4.20;;;;;;;;;;5037851;28;20204;-69
2022/01/03 08:01:06;;;;;;;16.83;4.37;;;;;;;;;;5037844;28;20200;-69
2022/01/03 08:03:32;;;;;;;13.93;3.73;;;;;;;;;;5037794;28;20263;-69
2022/01/03 08:05:58;;;;;;;13.37;3.90;;;;;;;;;;5037779;28;20216;-69
2022/01/03 08:08:24;;;;;;;14.77;4.27;;;;;;;;;;5037794;28;20232;-70
2022/01/03 08:10:50;;;;;;;13.50;4.43;;;;;;;;;;5037761;28;20235;-71
2022/01/03 08:13:16;;;;;;;14.40;4.33;;;;;;;;;;5036506;28;20204;-69
2022/01/03 08:15:43;;;;;;;11.67;4.30;;;;;;;;;;5037533;28;20647;-70
2022/01/03 08:18:10;;;;;;;16.40;3.73;;;;;;;;;;5037560;28;20834;-70
2022/01/03 08:20:36;;;;;;;15.97;3.60;;;;;;;;;;5037097;28;20247;-69
2022/01/03 08:23:02;;;;;;;11.47;3.67;;;;;;;;;;5034766;28;20259;-70
2022/01/03 08:25:33;;;;;;;17.20;4.03;;;;;;;;;;5034348;28;20204;-70
2022/01/03 08:27:59;;;;;;;14.13;3.97;;;;;;;;;;5034669;28;20201;-68
2022/01/03 08:30:25;;;;;;;15.77;3.80;;;;;;;;;;5034075;28;20652;-70
2022/01/03 08:32:51;;;;;;;16.13;4.27;;;;;;;;;;5034026;28;20643;-70
2022/01/03 08:35:19;;;;;;;16.00;3.97;;;;;;;;;;5034372;28;20197;-70
2022/01/03 08:37:45;;;;;;;16.53;3.90;;;;;;;;;;5034153;28;20197;-70
2022/01/03 08:40:11;;;;;;;15.03;3.40;;;;;;;;;;5034158;28;20201;-69
2022/01/03 08:42:37;;;;;;;13.50;3.57;;;;;;;;;;5034026;28;20185;-69
2022/01/03 08:45:04;;;;;;;13.37;3.63;;;;;;;;;;5034156;28;20216;-69
2022/01/03 08:47:30;;;;;;;19.30;4.70;;;;;;;;;;5033910;28;20197;-70
2022/01/03 08:49:56;;;;;;;13.53;3.90;;;;;;;;;;5033947;28;20217;-69
2022/01/03 08:52:24;;;;;;;15.30;3.97;;;;;;;;;;5033949;28;20228;-70
2022/01/03 08:54:50;;;;;;;12.97;3.50;;;;;;;;;;5033122;28;20225;-69
2022/01/03 08:57:16;;;;;;;14.07;4.03;;;;;;;;;;5033515;28;20211;-69
2022/01/03 08:59:42;;;;;;;16.37;4.20;;;;;;;;;;5033589;28;20664;-70
2022/01/03 09:02:08;;;;;;;14.17;4.03;;;;;;;;;;5033535;28;20203;-70
2022/01/03 09:04:34;;;;;;;17.03;4.50;;;;;;;;;;5033605;28;20671;-68
2022/01/03 09:07:00;;;;;;;21.00;4.13;;;;;;;;;;5033341;28;20553;-70
2022/01/03 09:09:30;;;;;;;16.17;5.03;;;;;;;;;;5033808;28;20477;-70
2022/01/03 09:11:56;;;;;;;12.90;4.47;;;;;;;;;;5033469;28;20698;-70
2022/01/03 09:14:22;;;;;;;16.10;4.07;;;;;;;;;;5033486;28;20212;-67
2022/01/03 09:16:48;;;;;;;12.73;3.63;;;;;;;;;;5033510;28;20205;-69
2022/01/03 09:19:14;;;;;;;16.07;4.53;;;;;;;;;;5033288;28;20219;-70
2022/01/03 09:21:40;;;;;;;19.30;4.57;;;;;;;;;;5033667;28;20515;-68
2022/01/03 09:30:15;;;;;;;11.40;3.60;;;;;;;;;;4972262;28;20215;-69
2022/01/03 09:32:41;;;;;;;15.97;4.40;;;;;;;;;;5018145;28;20302;-70
2022/01/03 09:35:07;;;;;;;13.30;4.17;;;;;;;;;;5033219;28;20197;-70
2022/01/03 09:37:33;;;;;;;17.30;4.53;;;;;;;;;;5033586;28;20671;-69
2022/01/03 09:39:59;;;;;;;11.50;3.63;;;;;;;;;;5032961;28;20231;-70
2022/01/03 09:42:29;;;;;;;17.27;4.33;;;;;;;;;;5033314;28;20193;-68
2022/01/03 09:44:56;;;;;;;14.43;4.47;;;;;;;;;;5032957;28;20197;-68
2022/01/03 09:47:22;;;;;;;16.30;4.13;;;;;;;;;;5032898;28;20576;-69
2022/01/03 09:49:48;;;;;;;17.90;4.57;;;;;;;;;;5032735;28;20572;-69
2022/01/03 09:52:15;;;;;;;14.07;4.07;;;;;;;;;;5032653;28;20268;-68
2022/01/03 09:54:41;;;;;;;16.23;4.10;;;;;;;;;;5032537;28;20274;-68
2022/01/03 09:57:08;;;;;;;17.87;4.33;;;;;;;;;;5032403;28;20241;-69
2022/01/03 09:59:37;;;;;;;14.97;5.00;;;;;;;;;;5032558;28;20196;-69
2022/01/03 10:02:04;;;;;;;14.70;4.10;;;;;;;;;;5032651;28;20564;-68
2022/01/03 10:04:30;;;;;;;13.50;4.70;;;;;;;;;;5032715;28;20303;-68
2022/01/03 10:06:56;;;;;;;9.57;4.00;;;;;;;;;;5032074;28;20689;-67
2022/01/03 10:09:23;;;;;;;15.97;4.33;;;;;;;;;;5032280;28;20272;-69
2022/01/03 10:11:49;;;;;;;15.03;3.80;;;;;;;;;;5032205;28;20644;-68
2022/01/03 10:14:16;;;;;;;13.57;3.63;;;;;;;;;;5032465;28;20207;-69
2022/01/03 10:16:44;;;;;;;14.80;4.00;;;;;;;;;;5031800;28;20262;-68
2022/01/03 10:19:11;;;;;;;10.33;3.83;;;;;;;;;;5032278;28;20204;-69
2022/01/03 10:21:37;;;;;;;15.13;3.97;;;;;;;;;;5032061;28;20199;-67
2022/01/03 10:24:04;;;;;;;16.27;4.00;;;;;;;;;;5032174;28;20193;-68
2022/01/03 10:26:30;;;;;;;12.87;3.73;;;;;;;;;;5032142;28;20197;-67
2022/01/03 10:29:10;;;;;;;9.40;3.77;;;;;;;;;;5032007;28;20395;-69
2022/01/03 10:31:38;;;;;;;13.63;3.97;;;;;;;;;;5031826;28;20274;-64
2022/01/03 10:34:07;;;;;;;12.37;3.30;;;;;;;;;;5031979;28;20201;-65
2022/01/03 10:36:34;;;;;;;16.97;3.63;;;;;;;;;;5031779;28;20227;-65
2022/01/03 10:39:10;;;;;;;11.07;3.87;;;;;;;;;;5031831;28;20205;-64
2022/01/03 10:41:36;;;;;;;13.17;4.63;;;;;;;;;;5031795;28;20204;-64
2022/01/03 10:44:03;;;;;;;9.53;3.53;;;;;;;;;;5031638;28;20747;-62
2022/01/03 10:46:29;;;;;;;10.53;3.63;;;;;;;;;;5032053;28;20201;-64
2022/01/03 10:49:06;;;;;;;14.43;3.33;;;;;;;;;;5032767;28;20726;-70
2022/01/03 10:51:33;;;;;;;15.53;3.77;;;;;;;;;;5032971;28;20216;-64
2022/01/03 10:53:59;;;;;;;11.17;3.17;;;;;;;;;;5031807;28;20245;-65
2022/01/03 10:56:30;;;;;;;9.83;3.30;;;;;;;;;;5031845;28;20245;-67
2022/01/03 10:58:58;;;;;;;13.60;3.30;;;;;;;;;;5031576;28;20225;-69
2022/01/03 11:01:24;;;;;;;10.03;3.17;;;;;;;;;;5031832;28;20247;-68
2022/01/03 11:03:51;;;;;;;8.43;3.23;;;;;;;;;;5031871;28;20220;-68
2022/01/03 11:11:43;;;;;;;9.23;3.00;;;;;;;;;;5031487;28;20219;-68
2022/01/03 11:14:09;;;;;;;11.40;3.17;;;;;;;;;;5031580;28;20204;-68
2022/01/03 11:16:39;;;;;;;15.70;3.77;;;;;;;;;;5031369;28;20211;-69
2022/01/03 11:19:06;;;;;;;12.13;3.43;;;;;;;;;;5031805;28;20296;-68
2022/01/03 11:21:33;;;;;;;10.20;2.90;;;;;;;;;;5031772;28;20196;-68
2022/01/03 11:24:09;;;;;;;10.53;3.23;;;;;;;;;;5031617;28;20201;-67
2022/01/03 11:26:38;;;;;;;9.77;3.30;;;;;;;;;;5031606;28;20298;-68
2022/01/03 11:29:04;;;;;;;11.60;3.10;;;;;;;;;;5031601;28;20197;-67
2022/01/03 11:31:33;;;;;;;13.63;2.97;;;;;;;;;;5031419;28;20221;-68
2022/01/03 11:33:59;;;;;;;11.37;3.33;;;;;;;;;;5031421;28;20205;-68
2022/01/03 11:36:26;;;;;;;8.87;2.80;;;;;;;;;;5031657;28;20200;-68
2022/01/03 11:38:54;;;;;;;13.83;3.67;;;;;;;;;;5029779;28;20200;-69
2022/01/03 11:41:22;;;;;;;13.47;3.00;;;;;;;;;;5031665;28;20200;-66
2022/01/03 11:43:49;;;;;;;10.27;2.93;;;;;;;;;;5031525;28;20625;-67
2022/01/03 11:46:15;;;;;;;8.63;3.00;;;;;;;;;;5031594;28;20258;-68
2022/01/03 11:48:41;;;;;;;9.30;2.60;;;;;;;;;;5031242;28;20690;-68
2022/01/03 11:51:09;;;;;;;7.50;2.80;;;;;;;;;;5031340;28;20212;-68
2022/01/03 11:53:36;;;;;;;7.10;2.93;;;;;;;;;;5031450;28;20220;-67
2022/01/03 11:56:04;;;;;;;12.20;3.23;;;;;;;;;;5032389;28;20237;-67
2022/01/03 11:58:47;;;;;;;7.57;2.67;;;;;;;;;;5035325;28;20209;-68
2022/01/03 12:03:58;;;;;;;7.87;2.63;;;;;;;;;;5034918;28;20271;-68
2022/01/03 12:06:29;;;;;;;7.33;2.50;;;;;;;;;;5035028;28;20223;-68
2022/01/03 12:08:57;;;;;;;8.20;2.40;;;;;;;;;;5034854;28;20675;-67
2022/01/03 12:11:24;;;;;;;6.17;2.40;;;;;;;;;;5034476;28;20592;-68
2022/01/03 12:13:52;;;;;;;9.03;2.80;;;;;;;;;;5034716;28;20214;-67
2022/01/03 12:16:19;;;;;;;9.07;2.67;;;;;;;;;;5034888;28;20226;-65
2022/01/03 12:18:56;;;;;;;10.03;2.80;;;;;;;;;;5034713;28;20197;-67
2022/01/03 12:21:37;;;;;;;7.77;2.63;;;;;;;;;;5034751;28;20185;-67
2022/01/03 12:24:03;;;;;;;10.37;3.30;;;;;;;;;;5034434;28;20292;-68
2022/01/03 12:26:29;;;;;;;8.63;3.00;;;;;;;;;;5034571;28;20205;-67
2022/01/03 12:29:05;;;;;;;11.07;2.73;;;;;;;;;;5034388;28;20207;-67
2022/01/03 12:31:46;;;;;;;10.20;2.70;;;;;;;;;;5034270;28;20220;-66
2022/01/03 12:34:19;;;;;;;9.73;3.20;;;;;;;;;;5034125;28;20287;-66
2022/01/03 12:37:10;;;;;;;8.33;2.50;;;;;;;;;;5034310;28;20201;-66
2022/01/03 12:40:04;;;;;;;11.23;2.93;;;;;;;;;;5034110;28;20205;-66
2022/01/03 12:42:45;;;;;;;6.83;2.67;;;;;;;;;;5033769;28;20203;-67
2022/01/03 12:45:13;;;;;;;9.43;2.77;;;;;;;;;;5033951;28;20208;-66
2022/01/03 12:47:40;;;;;;;9.90;3.17;;;;;;;;;;5033890;28;20284;-66
2022/01/03 12:50:19;;;;;;;9.20;2.97;;;;;;;;;;5033614;28;20209;-67
2022/01/03 12:52:45;;;;;;;7.50;3.03;;;;;;;;;;5033611;28;20315;-67
2022/01/03 12:55:31;;;;;;;8.63;2.50;;;;;;;;;;5033353;28;20320;-66
2022/01/03 12:57:57;;;;;;;10.07;2.67;;;;;;;;;;5033296;28;20192;-66
2022/01/03 13:03:23;;;;;;;8.23;2.73;;;;;;;;;;5089006;28;20905;-66
2022/01/03 13:06:04;;;;;;;15.40;3.30;;;;;;;;;;5088896;28;20199;-67
2022/01/03 13:08:30;;;;;;;10.80;3.23;;;;;;;;;;5088959;28;20652;-66
2022/01/03 13:10:59;;;;;;;14.67;3.43;;;;;;;;;;5088829;28;20233;-66
2022/01/03 13:13:27;;;;;;;9.63;3.43;;;;;;;;;;5088829;28;20743;-66
2022/01/03 13:15:53;;;;;;;12.53;3.50;;;;;;;;;;5089234;28;20610;-66
2022/01/03 13:18:19;;;;;;;8.20;2.90;;;;;;;;;;5088796;28;20726;-65
2022/01/03 13:20:55;;;;;;;10.00;2.77;;;;;;;;;;5088688;28;20228;-66
2022/01/03 13:23:21;;;;;;;11.57;3.20;;;;;;;;;;5088673;28;20199;-66
2022/01/03 13:25:47;;;;;;;8.40;2.77;;;;;;;;;;5088648;28;20614;-66
2022/01/03 13:28:13;;;;;;;14.30;3.37;;;;;;;;;;5088522;28;20265;-67
2022/01/03 13:30:39;;;;;;;10.80;3.13;;;;;;;;;;5088555;28;20194;-66
2022/01/03 13:33:05;;;;;;;13.30;3.13;;;;;;;;;;5088298;28;20657;-66
2022/01/03 13:35:31;;;;;;;12.57;3.17;;;;;;;;;;5088571;28;20201;-66
2022/01/03 13:37:58;;;;;;;9.77;3.20;;;;;;;;;;5088240;28;20195;-65
2022/01/03 13:40:24;;;;;;;16.53;4.20;;;;;;;;;;5088310;28;20210;-66
2022/01/03 13:43:14;;;;;;;11.43;3.30;;;;;;;;;;5088154;28;20227;-66
2022/01/03 13:51:08;;;;;;;9.50;3.30;;;;;;;;;;5088120;28;20186;-65
2022/01/03 13:53:35;;;;;;;7.50;3.10;;;;;;;;;;5088051;28;20223;-65
2022/01/03 13:56:01;;;;;;;9.40;3.03;;;;;;;;;;5088129;28;20206;-66
2022/01/03 13:58:27;;;;;;;10.30;3.27;;;;;;;;;;5085806;28;20199;-66
2022/01/03 14:00:58;;;;;;;6.67;2.87;;;;;;;;;;5087900;28;20207;-67
2022/01/03 14:03:25;;;;;;;11.60;3.53;;;;;;;;;;5088213;28;20195;-66
2022/01/03 14:06:11;;;;;;;7.83;3.30;;;;;;;;;;5088196;28;20211;-66
2022/01/03 14:08:39;;;;;;;9.80;2.80;;;;;;;;;;5088041;28;20194;-65
2022/01/03 14:11:05;;;;;;;9.70;2.80;;;;;;;;;;5088103;28;20256;-65
2022/01/03 14:13:31;;;;;;;9.47;2.83;;;;;;;;;;5080936;28;20200;-67
2022/01/03 14:16:01;;;;;;;7.80;2.67;;;;;;;;;;5074191;28;20195;-66
2022/01/03 14:18:34;;;;;;;11.07;3.07;;;;;;;;;;5074484;28;20200;-66
2022/01/03 14:21:06;;;;;;;11.30;3.17;;;;;;;;;;5068981;28;20319;-65
2022/01/03 14:23:32;;;;;;;9.73;3.07;;;;;;;;;;5068556;28;20245;-66
2022/01/03 14:26:11;;;;;;;10.17;2.90;;;;;;;;;;5053757;28;20196;-66
2022/01/03 14:28:39;;;;;;;10.53;3.23;;;;;;;;;;5054151;28;20594;-66
2022/01/03 14:31:05;;;;;;;12.70;3.20;;;;;;;;;;5054009;28;20211;-66
2022/01/03 14:33:32;;;;;;;10.73;2.93;;;;;;;;;;5054274;28;20197;-67
2022/01/03 14:35:58;;;;;;;10.73;3.43;;;;;;;;;;5053860;28;20212;-65
2022/01/03 14:38:28;;;;;;;13.03;3.43;;;;;;;;;;5054603;28;20658;-66
2022/01/03 14:40:54;;;;;;;15.50;3.53;;;;;;;;;;5054016;28;20227;-65
2022/01/03 14:43:24;;;;;;;14.73;3.20;;;;;;;;;;5054133;28;20215;-67
2022/01/03 14:45:51;;;;;;;12.57;3.53;;;;;;;;;;5053873;28;20617;-66
2022/01/03 14:48:17;;;;;;;11.83;3.57;;;;;;;;;;5053827;28;20211;-67
2022/01/03 14:50:43;;;;;;;12.97;3.37;;;;;;;;;;5053777;28;20204;-67
2022/01/03 14:53:11;;;;;;;9.90;3.03;;;;;;;;;;5053332;28;20222;-65
2022/01/03 14:55:38;;;;;;;14.40;3.43;;;;;;;;;;5053776;28;20615;-67
2022/01/03 14:58:04;;;;;;;15.40;3.83;;;;;;;;;;5053736;28;20201;-65
2022/01/03 15:00:33;;;;;;;9.63;3.53;;;;;;;;;;5053742;28;20298;-67
2022/01/03 15:03:00;;;;;;;9.27;3.13;;;;;;;;;;5053180;28;20248;-66
2022/01/03 15:05:27;;;;;;;10.63;3.57;;;;;;;;;;5053620;28;20200;-66
2022/01/03 15:07:53;;;;;;;12.93;3.33;;;;;;;;;;5053472;28;20193;-66